sensor_id;sensor_type;location;lat;lon;timestamp;P1;durP1;ratioP1;P2;durP2;ratioP2
6665;SDS011;3369;49.906;8.598;2023-06-26T00:01:03;4.25;;;3.85;;
6665;SDS011;3369;49.906;8.598;2023-06-26T00:03:30;5.15;;;3.95;;
6665;SDS011;3369;49.906;8.598;2023-06-26T00:05:57;4.85;;;4.35;;
6665;SDS011;3369;49.906;8.598;2023-06-26T00:08:25;5.05;;;4.55;;
6665;SDS011;3369;49.906;8.598;2023-06-26T00:10:51;4.82;;;4.32;;
6665;SDS011;3369;49.906;8.598;2023-06-26T00:13:17;5.20;;;4.70;;
6665;SDS011;3369;49.906;8.598;2023-06-26T00:15:42;5.78;;;5.03;;
6665;SDS011;3369;49.906;8.598;2023-06-26T00:18:08;5.47;;;4.75;;
6665;SDS011;3369;49.906;8.598;2023-06-26T00:20:33;5.05;;;4.65;;
6665;SDS011;3369;49.906;8.598;2023-06-26T00:22:59;5.40;;;4.90;;
6665;SDS011;3369;49.906;8.598;2023-06-26T00:25:25;5.43;;;4.63;;
6665;SDS011;3369;49.906;8.598;2023-06-26T00:27:51;4.47;;;3.92;;
6665;SDS011;3369;49.906;8.598;2023-06-26T00:30:16;5.07;;;4.68;;
6665;SDS011;3369;49.906;8.598;2023-06-26T00:32:42;4.70;;;4.30;;
6665;SDS011;3369;49.906;8.598;2023-06-26T00:35:08;4.57;;;4.18;;
6665;SDS011;3369;49.906;8.598;2023-06-26T00:37:33;4.28;;;3.88;;
6665;SDS011;3369;49.906;8.598;2023-06-26T00:39:59;4.15;;;3.75;;
6665;SDS011;3369;49.906;8.598;2023-06-26T00:42:25;4.60;;;4.20;;
6665;SDS011;3369;49.906;8.598;2023-06-26T00:44:50;4.30;;;3.90;;
6665;SDS011;3369;49.906;8.598;2023-06-26T00:47:16;4.03;;;3.72;;
6665;SDS011;3369;49.906;8.598;2023-06-26T00:49:42;3.92;;;3.63;;
6665;SDS011;3369;49.906;8.598;2023-06-26T00:52:08;5.18;;;4.68;;
6665;SDS011;3369;49.906;8.598;2023-06-26T00:54:34;4.78;;;4.38;;
6665;SDS011;3369;49.906;8.598;2023-06-26T00:56:59;4.70;;;4.30;;
6665;SDS011;3369;49.906;8.598;2023-06-26T00:59:25;4.85;;;4.45;;
6665;SDS011;3369;49.906;8.598;2023-06-26T01:01:51;5.10;;;4.63;;
6665;SDS011;3369;49.906;8.598;2023-06-26T01:04:16;4.70;;;4.30;;
6665;SDS011;3369;49.906;8.598;2023-06-26T01:06:47;4.22;;;3.88;;
6665;SDS011;3369;49.906;8.598;2023-06-26T01:30:43;5.10;;;4.60;;
6665;SDS011;3369;49.906;8.598;2023-06-26T01:33:10;4.28;;;3.80;;
6665;SDS011;3369;49.906;8.598;2023-06-26T01:35:37;4.30;;;3.93;;
6665;SDS011;3369;49.906;8.598;2023-06-26T01:38:13;3.93;;;3.63;;
6665;SDS011;3369;49.906;8.598;2023-06-26T01:40:43;4.30;;;3.90;;
6665;SDS011;3369;49.906;8.598;2023-06-26T01:43:11;4.17;;;3.77;;
6665;SDS011;3369;49.906;8.598;2023-06-26T01:45:45;4.33;;;3.93;;
6665;SDS011;3369;49.906;8.598;2023-06-26T01:48:15;4.45;;;4.05;;
6665;SDS011;3369;49.906;8.598;2023-06-26T01:50:47;4.43;;;4.03;;
6665;SDS011;3369;49.906;8.598;2023-06-26T01:53:18;4.40;;;4.00;;
6665;SDS011;3369;49.906;8.598;2023-06-26T01:55:58;4.73;;;4.33;;
6665;SDS011;3369;49.906;8.598;2023-06-26T01:58:28;4.18;;;3.78;;
6665;SDS011;3369;49.906;8.598;2023-06-26T02:00:54;4.97;;;4.30;;
6665;SDS011;3369;49.906;8.598;2023-06-26T02:03:20;4.55;;;4.15;;
6665;SDS011;3369;49.906;8.598;2023-06-26T02:05:49;4.55;;;4.05;;
6665;SDS011;3369;49.906;8.598;2023-06-26T02:08:15;4.85;;;4.45;;
6665;SDS011;3369;49.906;8.598;2023-06-26T02:10:41;4.55;;;4.15;;
6665;SDS011;3369;49.906;8.598;2023-06-26T02:13:07;4.70;;;4.30;;
6665;SDS011;3369;49.906;8.598;2023-06-26T02:15:32;4.40;;;4.00;;
6665;SDS011;3369;49.906;8.598;2023-06-26T02:17:58;4.20;;;3.90;;
6665;SDS011;3369;49.906;8.598;2023-06-26T02:20:23;4.30;;;3.90;;
6665;SDS011;3369;49.906;8.598;2023-06-26T02:22:49;4.50;;;4.10;;
6665;SDS011;3369;49.906;8.598;2023-06-26T02:25:15;4.95;;;4.47;;
6665;SDS011;3369;49.906;8.598;2023-06-26T02:27:40;4.75;;;4.30;;
6665;SDS011;3369;49.906;8.598;2023-06-26T02:30:08;4.53;;;4.13;;
6665;SDS011;3369;49.906;8.598;2023-06-26T02:32:34;4.80;;;4.40;;
6665;SDS011;3369;49.906;8.598;2023-06-26T02:34:59;5.20;;;4.70;;
6665;SDS011;3369;49.906;8.598;2023-06-26T02:37:25;5.33;;;4.43;;
6665;SDS011;3369;49.906;8.598;2023-06-26T02:39:51;5.20;;;4.73;;
6665;SDS011;3369;49.906;8.598;2023-06-26T02:42:16;5.10;;;4.60;;
6665;SDS011;3369;49.906;8.598;2023-06-26T02:44:42;4.80;;;4.35;;
6665;SDS011;3369;49.906;8.598;2023-06-26T02:47:08;5.43;;;4.93;;
6665;SDS011;3369;49.906;8.598;2023-06-26T02:49:33;5.30;;;4.80;;
6665;SDS011;3369;49.906;8.598;2023-06-26T02:51:59;4.80;;;4.37;;
6665;SDS011;3369;49.906;8.598;2023-06-26T02:54:24;5.20;;;4.70;;
6665;SDS011;3369;49.906;8.598;2023-06-26T02:56:50;4.63;;;4.23;;
6665;SDS011;3369;49.906;8.598;2023-06-26T02:59:16;4.57;;;4.17;;
6665;SDS011;3369;49.906;8.598;2023-06-26T03:01:41;5.17;;;4.67;;
6665;SDS011;3369;49.906;8.598;2023-06-26T03:04:07;5.23;;;4.73;;
6665;SDS011;3369;49.906;8.598;2023-06-26T03:06:33;4.83;;;4.43;;
6665;SDS011;3369;49.906;8.598;2023-06-26T03:08:59;4.83;;;4.43;;
6665;SDS011;3369;49.906;8.598;2023-06-26T03:11:24;5.10;;;4.60;;
6665;SDS011;3369;49.906;8.598;2023-06-26T03:13:50;4.90;;;4.43;;
6665;SDS011;3369;49.906;8.598;2023-06-26T03:16:15;5.40;;;4.90;;
6665;SDS011;3369;49.906;8.598;2023-06-26T03:18:41;5.40;;;4.90;;
6665;SDS011;3369;49.906;8.598;2023-06-26T03:21:06;4.40;;;4.03;;
6665;SDS011;3369;49.906;8.598;2023-06-26T03:23:34;5.17;;;4.60;;
6665;SDS011;3369;49.906;8.598;2023-06-26T03:25:59;5.00;;;4.60;;
6665;SDS011;3369;49.906;8.598;2023-06-26T03:28:25;5.00;;;4.50;;
6665;SDS011;3369;49.906;8.598;2023-06-26T03:30:50;5.70;;;5.20;;
6665;SDS011;3369;49.906;8.598;2023-06-26T03:33:16;5.53;;;4.93;;
6665;SDS011;3369;49.906;8.598;2023-06-26T03:35:42;5.90;;;4.90;;
6665;SDS011;3369;49.906;8.598;2023-06-26T03:38:07;4.67;;;4.23;;
6665;SDS011;3369;49.906;8.598;2023-06-26T03:40:33;5.63;;;5.07;;
6665;SDS011;3369;49.906;8.598;2023-06-26T03:42:58;5.10;;;4.60;;
6665;SDS011;3369;49.906;8.598;2023-06-26T03:45:24;4.47;;;4.07;;
6665;SDS011;3369;49.906;8.598;2023-06-26T03:47:50;5.00;;;4.60;;
6665;SDS011;3369;49.906;8.598;2023-06-26T03:50:16;4.93;;;4.40;;
6665;SDS011;3369;49.906;8.598;2023-06-26T03:52:42;5.27;;;4.77;;
6665;SDS011;3369;49.906;8.598;2023-06-26T03:55:07;5.60;;;5.00;;
6665;SDS011;3369;49.906;8.598;2023-06-26T03:57:33;5.43;;;4.93;;
6665;SDS011;3369;49.906;8.598;2023-06-26T03:59:59;5.53;;;4.90;;
6665;SDS011;3369;49.906;8.598;2023-06-26T04:02:25;4.93;;;4.53;;
6665;SDS011;3369;49.906;8.598;2023-06-26T04:04:50;5.32;;;4.82;;
6665;SDS011;3369;49.906;8.598;2023-06-26T04:07:17;5.10;;;4.60;;
6665;SDS011;3369;49.906;8.598;2023-06-26T04:09:43;6.10;;;4.93;;
6665;SDS011;3369;49.906;8.598;2023-06-26T04:12:09;6.67;;;4.63;;
6665;SDS011;3369;49.906;8.598;2023-06-26T04:14:35;5.07;;;4.57;;
6665;SDS011;3369;49.906;8.598;2023-06-26T04:17:01;5.57;;;5.00;;
6665;SDS011;3369;49.906;8.598;2023-06-26T04:19:28;5.60;;;5.00;;
6665;SDS011;3369;49.906;8.598;2023-06-26T04:21:54;6.33;;;5.50;;
6665;SDS011;3369;49.906;8.598;2023-06-26T04:24:20;6.37;;;5.40;;
6665;SDS011;3369;49.906;8.598;2023-06-26T04:26:45;5.87;;;5.27;;
6665;SDS011;3369;49.906;8.598;2023-06-26T04:29:11;5.90;;;5.40;;
6665;SDS011;3369;49.906;8.598;2023-06-26T04:31:37;5.95;;;5.40;;
6665;SDS011;3369;49.906;8.598;2023-06-26T04:34:04;5.80;;;5.28;;
6665;SDS011;3369;49.906;8.598;2023-06-26T04:36:29;10.27;;;6.03;;
6665;SDS011;3369;49.906;8.598;2023-06-26T04:38:56;5.57;;;5.07;;
6665;SDS011;3369;49.906;8.598;2023-06-26T04:41:23;6.13;;;5.53;;
6665;SDS011;3369;49.906;8.598;2023-06-26T04:43:49;5.65;;;5.15;;
6665;SDS011;3369;49.906;8.598;2023-06-26T04:46:15;5.90;;;5.30;;
6665;SDS011;3369;49.906;8.598;2023-06-26T04:48:41;6.77;;;5.90;;
6665;SDS011;3369;49.906;8.598;2023-06-26T04:51:06;6.50;;;5.78;;
6665;SDS011;3369;49.906;8.598;2023-06-26T04:53:32;6.53;;;5.93;;
6665;SDS011;3369;49.906;8.598;2023-06-26T04:55:58;6.38;;;5.72;;
6665;SDS011;3369;49.906;8.598;2023-06-26T04:58:23;6.28;;;5.70;;
6665;SDS011;3369;49.906;8.598;2023-06-26T05:00:49;6.77;;;5.93;;
6665;SDS011;3369;49.906;8.598;2023-06-26T05:03:15;6.18;;;5.57;;
6665;SDS011;3369;49.906;8.598;2023-06-26T05:05:42;5.80;;;5.30;;
6665;SDS011;3369;49.906;8.598;2023-06-26T05:08:23;5.80;;;5.30;;
6665;SDS011;3369;49.906;8.598;2023-06-26T05:10:51;6.25;;;5.65;;
6665;SDS011;3369;49.906;8.598;2023-06-26T05:13:18;6.43;;;5.82;;
6665;SDS011;3369;49.906;8.598;2023-06-26T05:15:45;6.27;;;5.67;;
6665;SDS011;3369;49.906;8.598;2023-06-26T05:18:11;6.93;;;6.18;;
6665;SDS011;3369;49.906;8.598;2023-06-26T05:20:37;6.70;;;6.03;;
6665;SDS011;3369;49.906;8.598;2023-06-26T05:23:04;6.72;;;6.13;;
6665;SDS011;3369;49.906;8.598;2023-06-26T05:25:30;5.07;;;4.65;;
6665;SDS011;3369;49.906;8.598;2023-06-26T05:27:57;6.03;;;5.40;;
6665;SDS011;3369;49.906;8.598;2023-06-26T05:30:23;5.60;;;5.10;;
6665;SDS011;3369;49.906;8.598;2023-06-26T05:32:53;6.80;;;5.20;;
6665;SDS011;3369;49.906;8.598;2023-06-26T05:35:22;6.15;;;5.60;;
6665;SDS011;3369;49.906;8.598;2023-06-26T05:37:48;6.13;;;5.53;;
6665;SDS011;3369;49.906;8.598;2023-06-26T05:40:16;5.75;;;5.22;;
6665;SDS011;3369;49.906;8.598;2023-06-26T05:42:42;6.00;;;5.45;;
6665;SDS011;3369;49.906;8.598;2023-06-26T05:45:09;6.80;;;5.90;;
6665;SDS011;3369;49.906;8.598;2023-06-26T05:47:35;6.30;;;5.50;;
6665;SDS011;3369;49.906;8.598;2023-06-26T05:50:01;6.60;;;6.00;;
6665;SDS011;3369;49.906;8.598;2023-06-26T05:52:27;6.57;;;5.97;;
6665;SDS011;3369;49.906;8.598;2023-06-26T05:54:53;6.93;;;5.88;;
6665;SDS011;3369;49.906;8.598;2023-06-26T05:57:20;7.20;;;6.50;;
6665;SDS011;3369;49.906;8.598;2023-06-26T05:59:46;8.40;;;6.35;;
6665;SDS011;3369;49.906;8.598;2023-06-26T06:02:12;8.00;;;7.00;;
6665;SDS011;3369;49.906;8.598;2023-06-26T06:04:38;8.48;;;6.25;;
6665;SDS011;3369;49.906;8.598;2023-06-26T06:07:03;6.93;;;6.32;;
6665;SDS011;3369;49.906;8.598;2023-06-26T06:09:29;7.07;;;6.20;;
6665;SDS011;3369;49.906;8.598;2023-06-26T06:11:55;6.57;;;5.97;;
6665;SDS011;3369;49.906;8.598;2023-06-26T06:14:21;7.07;;;6.13;;
6665;SDS011;3369;49.906;8.598;2023-06-26T06:16:46;7.60;;;6.05;;
6665;SDS011;3369;49.906;8.598;2023-06-26T06:19:12;7.53;;;5.95;;
6665;SDS011;3369;49.906;8.598;2023-06-26T06:21:38;10.80;;;6.03;;
6665;SDS011;3369;49.906;8.598;2023-06-26T06:24:04;7.95;;;6.05;;
6665;SDS011;3369;49.906;8.598;2023-06-26T06:26:32;7.47;;;6.65;;
6665;SDS011;3369;49.906;8.598;2023-06-26T06:28:58;6.60;;;6.00;;
6665;SDS011;3369;49.906;8.598;2023-06-26T06:31:23;7.25;;;5.75;;
6665;SDS011;3369;49.906;8.598;2023-06-26T06:33:49;7.55;;;6.25;;
6665;SDS011;3369;49.906;8.598;2023-06-26T06:36:15;8.20;;;6.65;;
6665;SDS011;3369;49.906;8.598;2023-06-26T06:38:43;9.10;;;6.38;;
6665;SDS011;3369;49.906;8.598;2023-06-26T06:41:09;7.68;;;6.20;;
6665;SDS011;3369;49.906;8.598;2023-06-26T06:43:35;6.05;;;5.45;;
6665;SDS011;3369;49.906;8.598;2023-06-26T06:46:01;6.93;;;6.07;;
6665;SDS011;3369;49.906;8.598;2023-06-26T06:48:27;7.05;;;6.25;;
6665;SDS011;3369;49.906;8.598;2023-06-26T06:50:52;8.55;;;6.65;;
6665;SDS011;3369;49.906;8.598;2023-06-26T07:13:46;6.43;;;5.70;;
6665;SDS011;3369;49.906;8.598;2023-06-26T07:16:12;7.40;;;5.32;;
6665;SDS011;3369;49.906;8.598;2023-06-26T07:18:39;7.75;;;5.93;;
6665;SDS011;3369;49.906;8.598;2023-06-26T07:21:05;6.65;;;6.05;;
6665;SDS011;3369;49.906;8.598;2023-06-26T07:23:31;7.75;;;6.07;;
6665;SDS011;3369;49.906;8.598;2023-06-26T07:25:56;6.95;;;6.15;;
6665;SDS011;3369;49.906;8.598;2023-06-26T07:28:22;6.43;;;5.80;;
6665;SDS011;3369;49.906;8.598;2023-06-26T07:30:48;6.28;;;5.57;;
6665;SDS011;3369;49.906;8.598;2023-06-26T07:33:14;6.28;;;5.45;;
6665;SDS011;3369;49.906;8.598;2023-06-26T07:35:39;6.22;;;5.63;;
6665;SDS011;3369;49.906;8.598;2023-06-26T07:38:05;8.90;;;6.30;;
6665;SDS011;3369;49.906;8.598;2023-06-26T07:40:31;7.50;;;6.35;;
6665;SDS011;3369;49.906;8.598;2023-06-26T07:42:56;6.63;;;6.00;;
6665;SDS011;3369;49.906;8.598;2023-06-26T07:45:23;6.45;;;5.85;;
6665;SDS011;3369;49.906;8.598;2023-06-26T07:47:49;6.32;;;5.70;;
6665;SDS011;3369;49.906;8.598;2023-06-26T07:50:14;6.13;;;5.53;;
6665;SDS011;3369;49.906;8.598;2023-06-26T07:52:46;6.35;;;5.75;;
6665;SDS011;3369;49.906;8.598;2023-06-26T07:55:12;6.10;;;5.60;;
6665;SDS011;3369;49.906;8.598;2023-06-26T07:57:37;6.25;;;5.65;;
6665;SDS011;3369;49.906;8.598;2023-06-26T08:00:03;8.30;;;5.85;;
6665;SDS011;3369;49.906;8.598;2023-06-26T08:02:31;7.63;;;6.18;;
6665;SDS011;3369;49.906;8.598;2023-06-26T08:04:57;5.97;;;5.47;;
6665;SDS011;3369;49.906;8.598;2023-06-26T08:07:23;6.43;;;5.82;;
6665;SDS011;3369;49.906;8.598;2023-06-26T08:09:48;9.77;;;6.25;;
6665;SDS011;3369;49.906;8.598;2023-06-26T08:12:14;6.43;;;5.80;;
6665;SDS011;3369;49.906;8.598;2023-06-26T08:14:40;6.88;;;5.63;;
6665;SDS011;3369;49.906;8.598;2023-06-26T08:17:05;6.22;;;5.63;;
6665;SDS011;3369;49.906;8.598;2023-06-26T08:19:31;7.15;;;6.55;;
6665;SDS011;3369;49.906;8.598;2023-06-26T08:21:57;6.97;;;5.82;;
6665;SDS011;3369;49.906;8.598;2023-06-26T08:24:23;7.18;;;6.47;;
6665;SDS011;3369;49.906;8.598;2023-06-26T08:26:48;6.45;;;5.82;;
6665;SDS011;3369;49.906;8.598;2023-06-26T08:29:14;6.10;;;5.50;;
6665;SDS011;3369;49.906;8.598;2023-06-26T08:31:40;6.78;;;6.18;;
6665;SDS011;3369;49.906;8.598;2023-06-26T08:34:07;6.47;;;5.55;;
6665;SDS011;3369;49.906;8.598;2023-06-26T08:36:33;6.18;;;5.55;;
6665;SDS011;3369;49.906;8.598;2023-06-26T08:38:59;5.93;;;5.32;;
6665;SDS011;3369;49.906;8.598;2023-06-26T08:41:24;7.63;;;6.90;;
6665;SDS011;3369;49.906;8.598;2023-06-26T08:43:50;8.35;;;6.13;;
6665;SDS011;3369;49.906;8.598;2023-06-26T08:46:17;8.13;;;5.70;;
6665;SDS011;3369;49.906;8.598;2023-06-26T08:48:45;5.95;;;5.35;;
6665;SDS011;3369;49.906;8.598;2023-06-26T08:51:16;7.85;;;5.40;;
6665;SDS011;3369;49.906;8.598;2023-06-26T08:53:46;6.22;;;5.55;;
6665;SDS011;3369;49.906;8.598;2023-06-26T08:56:17;6.47;;;5.88;;
6665;SDS011;3369;49.906;8.598;2023-06-26T08:58:46;5.80;;;5.30;;
6665;SDS011;3369;49.906;8.598;2023-06-26T09:01:12;6.30;;;5.70;;
6665;SDS011;3369;49.906;8.598;2023-06-26T09:03:38;7.35;;;6.15;;
6665;SDS011;3369;49.906;8.598;2023-06-26T09:06:04;7.78;;;5.88;;
6665;SDS011;3369;49.906;8.598;2023-06-26T09:08:29;6.72;;;6.03;;
6665;SDS011;3369;49.906;8.598;2023-06-26T09:10:55;5.78;;;5.28;;
6665;SDS011;3369;49.906;8.598;2023-06-26T09:13:21;6.10;;;5.50;;
6665;SDS011;3369;49.906;8.598;2023-06-26T09:15:47;5.22;;;4.72;;
6665;SDS011;3369;49.906;8.598;2023-06-26T09:18:13;6.47;;;5.65;;
6665;SDS011;3369;49.906;8.598;2023-06-26T09:20:41;5.70;;;4.80;;
6665;SDS011;3369;49.906;8.598;2023-06-26T09:23:07;5.35;;;4.80;;
6665;SDS011;3369;49.906;8.598;2023-06-26T09:25:34;5.95;;;4.50;;
6665;SDS011;3369;49.906;8.598;2023-06-26T09:28:05;5.30;;;4.80;;
6665;SDS011;3369;49.906;8.598;2023-06-26T09:30:33;6.03;;;4.78;;
6665;SDS011;3369;49.906;8.598;2023-06-26T09:33:16;5.07;;;4.57;;
6665;SDS011;3369;49.906;8.598;2023-06-26T09:35:43;5.65;;;5.00;;
6665;SDS011;3369;49.906;8.598;2023-06-26T09:38:10;6.63;;;5.10;;
6665;SDS011;3369;49.906;8.598;2023-06-26T09:40:37;5.22;;;4.78;;
6665;SDS011;3369;49.906;8.598;2023-06-26T09:43:04;4.88;;;4.47;;
6665;SDS011;3369;49.906;8.598;2023-06-26T09:45:31;5.35;;;4.85;;
6665;SDS011;3369;49.906;8.598;2023-06-26T09:48:01;6.03;;;5.43;;
6665;SDS011;3369;49.906;8.598;2023-06-26T09:50:29;5.28;;;4.70;;
6665;SDS011;3369;49.906;8.598;2023-06-26T09:52:58;5.05;;;4.50;;
6665;SDS011;3369;49.906;8.598;2023-06-26T09:55:35;5.03;;;4.53;;
6665;SDS011;3369;49.906;8.598;2023-06-26T09:58:02;5.35;;;4.88;;
6665;SDS011;3369;49.906;8.598;2023-06-26T10:00:29;5.47;;;4.97;;
6665;SDS011;3369;49.906;8.598;2023-06-26T10:02:56;5.70;;;4.68;;
6665;SDS011;3369;49.906;8.598;2023-06-26T10:05:21;4.97;;;4.57;;
6665;SDS011;3369;49.906;8.598;2023-06-26T10:07:47;5.25;;;4.75;;
6665;SDS011;3369;49.906;8.598;2023-06-26T10:10:14;5.75;;;4.45;;
6665;SDS011;3369;49.906;8.598;2023-06-26T10:12:41;5.55;;;5.05;;
6665;SDS011;3369;49.906;8.598;2023-06-26T10:15:10;5.70;;;5.13;;
6665;SDS011;3369;49.906;8.598;2023-06-26T10:17:38;4.90;;;4.43;;
6665;SDS011;3369;49.906;8.598;2023-06-26T10:20:08;5.50;;;5.10;;
6665;SDS011;3369;49.906;8.598;2023-06-26T10:22:44;4.95;;;4.40;;
6665;SDS011;3369;49.906;8.598;2023-06-26T10:25:14;4.82;;;4.43;;
6665;SDS011;3369;49.906;8.598;2023-06-26T10:27:45;8.50;;;4.40;;
6665;SDS011;3369;49.906;8.598;2023-06-26T10:30:16;5.25;;;4.47;;
6665;SDS011;3369;49.906;8.598;2023-06-26T10:32:47;6.72;;;4.70;;
6665;SDS011;3369;49.906;8.598;2023-06-26T10:35:14;4.93;;;4.50;;
6665;SDS011;3369;49.906;8.598;2023-06-26T10:37:41;5.40;;;4.90;;
6665;SDS011;3369;49.906;8.598;2023-06-26T10:40:11;5.93;;;5.15;;
6665;SDS011;3369;49.906;8.598;2023-06-26T10:42:38;7.72;;;4.68;;
6665;SDS011;3369;49.906;8.598;2023-06-26T10:45:19;5.07;;;4.57;;
6665;SDS011;3369;49.906;8.598;2023-06-26T10:47:46;7.55;;;5.10;;
6665;SDS011;3369;49.906;8.598;2023-06-26T10:50:20;5.05;;;4.57;;
6665;SDS011;3369;49.906;8.598;2023-06-26T10:52:50;5.05;;;4.65;;
6665;SDS011;3369;49.906;8.598;2023-06-26T10:55:32;7.60;;;5.03;;
6665;SDS011;3369;49.906;8.598;2023-06-26T10:57:58;5.30;;;4.75;;
6665;SDS011;3369;49.906;8.598;2023-06-26T11:00:24;4.75;;;4.35;;
6665;SDS011;3369;49.906;8.598;2023-06-26T11:02:50;5.30;;;4.90;;
6665;SDS011;3369;49.906;8.598;2023-06-26T11:05:28;7.35;;;4.78;;
6665;SDS011;3369;49.906;8.598;2023-06-26T11:08:09;5.47;;;4.93;;
6665;SDS011;3369;49.906;8.598;2023-06-26T11:10:55;5.82;;;4.85;;
6665;SDS011;3369;49.906;8.598;2023-06-26T11:13:26;5.20;;;4.70;;
6665;SDS011;3369;49.906;8.598;2023-06-26T11:15:52;5.60;;;5.10;;
6665;SDS011;3369;49.906;8.598;2023-06-26T11:18:21;5.72;;;4.75;;
6665;SDS011;3369;49.906;8.598;2023-06-26T11:20:49;5.38;;;4.90;;
6665;SDS011;3369;49.906;8.598;2023-06-26T11:23:14;5.65;;;4.55;;
6665;SDS011;3369;49.906;8.598;2023-06-26T11:25:48;4.95;;;4.55;;
6665;SDS011;3369;49.906;8.598;2023-06-26T11:28:14;4.30;;;4.00;;
6665;SDS011;3369;49.906;8.598;2023-06-26T11:30:40;5.95;;;4.63;;
6665;SDS011;3369;49.906;8.598;2023-06-26T11:33:07;5.40;;;4.90;;
6665;SDS011;3369;49.906;8.598;2023-06-26T11:35:34;5.03;;;4.63;;
6665;SDS011;3369;49.906;8.598;2023-06-26T11:38:00;4.85;;;4.45;;
6665;SDS011;3369;49.906;8.598;2023-06-26T11:40:30;5.75;;;4.22;;
6665;SDS011;3369;49.906;8.598;2023-06-26T11:43:01;4.75;;;4.35;;
6665;SDS011;3369;49.906;8.598;2023-06-26T11:45:28;4.97;;;4.57;;
6665;SDS011;3369;49.906;8.598;2023-06-26T11:47:58;7.00;;;4.63;;
6665;SDS011;3369;49.906;8.598;2023-06-26T11:50:25;11.55;;;5.25;;
6665;SDS011;3369;49.906;8.598;2023-06-26T11:52:55;8.15;;;5.13;;
6665;SDS011;3369;49.906;8.598;2023-06-26T11:55:24;6.65;;;5.35;;
6665;SDS011;3369;49.906;8.598;2023-06-26T11:57:54;5.88;;;4.88;;
6665;SDS011;3369;49.906;8.598;2023-06-26T12:00:20;6.32;;;5.03;;
6665;SDS011;3369;49.906;8.598;2023-06-26T12:02:46;7.03;;;5.20;;
6665;SDS011;3369;49.906;8.598;2023-06-26T12:05:13;6.15;;;5.50;;
6665;SDS011;3369;49.906;8.598;2023-06-26T12:07:43;9.23;;;5.85;;
6665;SDS011;3369;49.906;8.598;2023-06-26T12:10:10;7.10;;;5.15;;
6665;SDS011;3369;49.906;8.598;2023-06-26T12:12:38;6.38;;;5.70;;
6665;SDS011;3369;49.906;8.598;2023-06-26T12:15:05;6.25;;;5.65;;
6665;SDS011;3369;49.906;8.598;2023-06-26T12:17:32;9.07;;;6.10;;
6665;SDS011;3369;49.906;8.598;2023-06-26T12:19:58;7.30;;;5.90;;
6665;SDS011;3369;49.906;8.598;2023-06-26T12:22:24;7.00;;;6.30;;
6665;SDS011;3369;49.906;8.598;2023-06-26T12:25:00;11.02;;;7.38;;
6665;SDS011;3369;49.906;8.598;2023-06-26T12:27:26;8.60;;;7.80;;
6665;SDS011;3369;49.906;8.598;2023-06-26T12:29:53;8.13;;;7.32;;
6665;SDS011;3369;49.906;8.598;2023-06-26T12:32:19;8.80;;;7.93;;
6665;SDS011;3369;49.906;8.598;2023-06-26T12:34:53;8.90;;;8.00;;
6665;SDS011;3369;49.906;8.598;2023-06-26T12:37:22;9.52;;;8.23;;
6665;SDS011;3369;49.906;8.598;2023-06-26T12:39:54;8.52;;;7.35;;
6665;SDS011;3369;49.906;8.598;2023-06-26T12:42:22;8.25;;;7.25;;
6665;SDS011;3369;49.906;8.598;2023-06-26T12:44:49;8.45;;;7.22;;
6665;SDS011;3369;49.906;8.598;2023-06-26T12:47:16;7.40;;;6.70;;
6665;SDS011;3369;49.906;8.598;2023-06-26T12:49:44;8.82;;;7.15;;
6665;SDS011;3369;49.906;8.598;2023-06-26T12:52:11;8.80;;;7.28;;
6665;SDS011;3369;49.906;8.598;2023-06-26T12:54:39;8.80;;;7.40;;
6665;SDS011;3369;49.906;8.598;2023-06-26T12:57:06;7.18;;;6.47;;
6665;SDS011;3369;49.906;8.598;2023-06-26T12:59:32;7.63;;;6.18;;
6665;SDS011;3369;49.906;8.598;2023-06-26T13:01:59;11.77;;;6.03;;
6665;SDS011;3369;49.906;8.598;2023-06-26T13:04:25;5.82;;;4.60;;
6665;SDS011;3369;49.906;8.598;2023-06-26T13:06:51;5.40;;;4.90;;
6665;SDS011;3369;49.906;8.598;2023-06-26T13:30:47;5.45;;;4.65;;
6665;SDS011;3369;49.906;8.598;2023-06-26T13:33:14;9.15;;;5.47;;
6665;SDS011;3369;49.906;8.598;2023-06-26T13:35:41;10.98;;;4.35;;
6665;SDS011;3369;49.906;8.598;2023-06-26T13:38:06;7.22;;;4.63;;
6665;SDS011;3369;49.906;8.598;2023-06-26T13:40:32;4.55;;;4.15;;
6665;SDS011;3369;49.906;8.598;2023-06-26T13:42:57;4.95;;;4.03;;
6665;SDS011;3369;49.906;8.598;2023-06-26T13:45:24;7.03;;;4.25;;
6665;SDS011;3369;49.906;8.598;2023-06-26T13:47:50;11.95;;;5.32;;
6665;SDS011;3369;49.906;8.598;2023-06-26T13:50:16;8.10;;;4.25;;
6665;SDS011;3369;49.906;8.598;2023-06-26T13:52:41;4.18;;;3.78;;
6665;SDS011;3369;49.906;8.598;2023-06-26T13:55:07;6.05;;;4.30;;
6665;SDS011;3369;49.906;8.598;2023-06-26T13:57:33;4.63;;;4.20;;
6665;SDS011;3369;49.906;8.598;2023-06-26T13:59:59;6.53;;;4.00;;
6665;SDS011;3369;49.906;8.598;2023-06-26T14:02:24;4.13;;;3.72;;
6665;SDS011;3369;49.906;8.598;2023-06-26T14:04:51;4.53;;;3.60;;
6665;SDS011;3369;49.906;8.598;2023-06-26T14:07:17;6.90;;;4.28;;
6665;SDS011;3369;49.906;8.598;2023-06-26T14:09:43;4.53;;;3.67;;
6665;SDS011;3369;49.906;8.598;2023-06-26T14:12:08;4.50;;;3.60;;
6665;SDS011;3369;49.906;8.598;2023-06-26T14:14:34;6.57;;;3.75;;
6665;SDS011;3369;49.906;8.598;2023-06-26T14:17:00;3.65;;;3.30;;
6665;SDS011;3369;49.906;8.598;2023-06-26T14:19:25;5.40;;;2.92;;
6665;SDS011;3369;49.906;8.598;2023-06-26T14:21:51;5.05;;;3.03;;
6665;SDS011;3369;49.906;8.598;2023-06-26T14:24:17;6.38;;;3.50;;
6665;SDS011;3369;49.906;8.598;2023-06-26T14:26:43;4.60;;;3.15;;
6665;SDS011;3369;49.906;8.598;2023-06-26T14:29:08;3.88;;;3.10;;
6665;SDS011;3369;49.906;8.598;2023-06-26T14:31:34;5.55;;;3.13;;
6665;SDS011;3369;49.906;8.598;2023-06-26T14:34:00;4.30;;;3.25;;
6665;SDS011;3369;49.906;8.598;2023-06-26T14:36:27;7.78;;;3.47;;
6665;SDS011;3369;49.906;8.598;2023-06-26T14:38:56;3.75;;;3.00;;
6665;SDS011;3369;49.906;8.598;2023-06-26T14:41:21;3.70;;;2.72;;
6665;SDS011;3369;49.906;8.598;2023-06-26T14:43:47;3.45;;;2.65;;
6665;SDS011;3369;49.906;8.598;2023-06-26T14:46:13;5.57;;;2.78;;
6665;SDS011;3369;49.906;8.598;2023-06-26T14:48:39;3.22;;;2.85;;
6665;SDS011;3369;49.906;8.598;2023-06-26T14:51:04;5.93;;;2.83;;
6665;SDS011;3369;49.906;8.598;2023-06-26T14:53:30;6.45;;;2.90;;
6665;SDS011;3369;49.906;8.598;2023-06-26T14:55:56;6.38;;;2.83;;
6665;SDS011;3369;49.906;8.598;2023-06-26T14:58:21;4.35;;;3.35;;
6665;SDS011;3369;49.906;8.598;2023-06-26T15:00:47;2.83;;;2.58;;
6665;SDS011;3369;49.906;8.598;2023-06-26T15:03:13;6.43;;;2.90;;
6665;SDS011;3369;49.906;8.598;2023-06-26T15:05:39;3.50;;;2.35;;
6665;SDS011;3369;49.906;8.598;2023-06-26T15:08:04;3.03;;;2.30;;
6665;SDS011;3369;49.906;8.598;2023-06-26T15:10:30;4.82;;;2.50;;
6665;SDS011;3369;49.906;8.598;2023-06-26T15:12:56;5.00;;;2.40;;
6665;SDS011;3369;49.906;8.598;2023-06-26T15:15:21;3.15;;;2.22;;
6665;SDS011;3369;49.906;8.598;2023-06-26T15:17:47;2.47;;;2.28;;
6665;SDS011;3369;49.906;8.598;2023-06-26T15:20:13;6.82;;;2.13;;
6665;SDS011;3369;49.906;8.598;2023-06-26T15:22:38;4.10;;;2.10;;
6665;SDS011;3369;49.906;8.598;2023-06-26T15:25:05;5.10;;;2.00;;
6665;SDS011;3369;49.906;8.598;2023-06-26T15:27:32;6.55;;;2.22;;
6665;SDS011;3369;49.906;8.598;2023-06-26T15:29:57;3.15;;;2.08;;
6665;SDS011;3369;49.906;8.598;2023-06-26T15:32:23;4.20;;;2.13;;
6665;SDS011;3369;49.906;8.598;2023-06-26T15:34:48;3.13;;;1.88;;
6665;SDS011;3369;49.906;8.598;2023-06-26T15:37:14;4.55;;;2.38;;
6665;SDS011;3369;49.906;8.598;2023-06-26T15:39:40;1.95;;;1.50;;
6665;SDS011;3369;49.906;8.598;2023-06-26T15:42:07;6.45;;;1.80;;
6665;SDS011;3369;49.906;8.598;2023-06-26T15:44:32;3.22;;;2.13;;
6665;SDS011;3369;49.906;8.598;2023-06-26T15:47:01;5.20;;;2.10;;
6665;SDS011;3369;49.906;8.598;2023-06-26T15:49:27;3.38;;;1.88;;
6665;SDS011;3369;49.906;8.598;2023-06-26T15:51:52;3.55;;;1.65;;
6665;SDS011;3369;49.906;8.598;2023-06-26T15:54:18;2.22;;;1.63;;
6665;SDS011;3369;49.906;8.598;2023-06-26T15:56:43;7.50;;;2.03;;
6665;SDS011;3369;49.906;8.598;2023-06-26T15:59:09;4.13;;;1.98;;
6665;SDS011;3369;49.906;8.598;2023-06-26T16:01:35;4.40;;;1.80;;
6665;SDS011;3369;49.906;8.598;2023-06-26T16:04:00;2.10;;;1.40;;
6665;SDS011;3369;49.906;8.598;2023-06-26T16:06:26;5.13;;;1.80;;
6665;SDS011;3369;49.906;8.598;2023-06-26T16:08:52;4.22;;;1.88;;
6665;SDS011;3369;49.906;8.598;2023-06-26T16:11:18;5.00;;;1.67;;
6665;SDS011;3369;49.906;8.598;2023-06-26T16:13:44;3.00;;;1.52;;
6665;SDS011;3369;49.906;8.598;2023-06-26T16:16:11;2.63;;;1.40;;